sensor_id;sensor_type;location;lat;lon;timestamp;temperature;humidity
20446;DHT22;10382;49.140;9.234;2023-07-29T00:01:09;20.20;99.90
20446;DHT22;10382;49.140;9.234;2023-07-29T00:03:36;20.30;99.90
20446;DHT22;10382;49.140;9.234;2023-07-29T00:06:04;20.40;99.90
20446;DHT22;10382;49.140;9.234;2023-07-29T00:08:31;20.40;99.90
20446;DHT22;10382;49.140;9.234;2023-07-29T00:10:58;20.50;99.90
20446;DHT22;10382;49.140;9.234;2023-07-29T00:13:24;20.50;99.90
20446;DHT22;10382;49.140;9.234;2023-07-29T00:15:53;20.40;99.90
20446;DHT22;10382;49.140;9.234;2023-07-29T00:18:21;20.40;99.90
20446;DHT22;10382;49.140;9.234;2023-07-29T00:20:49;20.40;99.90
20446;DHT22;10382;49.140;9.234;2023-07-29T00:23:17;20.40;99.90
20446;DHT22;10382;49.140;9.234;2023-07-29T00:25:45;20.30;99.90
20446;DHT22;10382;49.140;9.234;2023-07-29T00:28:12;20.30;99.90
20446;DHT22;10382;49.140;9.234;2023-07-29T00:30:39;20.10;99.90
20446;DHT22;10382;49.140;9.234;2023-07-29T00:33:06;20.20;99.90
20446;DHT22;10382;49.140;9.234;2023-07-29T00:35:33;20.20;99.90
20446;DHT22;10382;49.140;9.234;2023-07-29T00:38:00;20.10;99.90
20446;DHT22;10382;49.140;9.234;2023-07-29T00:40:29;20.10;99.90
20446;DHT22;10382;49.140;9.234;2023-07-29T00:42:56;20.00;99.90
20446;DHT22;10382;49.140;9.234;2023-07-29T00:45:24;20.10;99.90
20446;DHT22;10382;49.140;9.234;2023-07-29T00:47:51;20.00;99.90
20446;DHT22;10382;49.140;9.234;2023-07-29T00:50:18;20.10;99.90
20446;DHT22;10382;49.140;9.234;2023-07-29T00:52:45;20.10;99.90
20446;DHT22;10382;49.140;9.234;2023-07-29T00:55:12;20.10;99.90
20446;DHT22;10382;49.140;9.234;2023-07-29T00:57:41;20.10;99.90
20446;DHT22;10382;49.140;9.234;2023-07-29T01:00:14;20.10;99.90
20446;DHT22;10382;49.140;9.234;2023-07-29T01:02:41;20.10;99.90
20446;DHT22;10382;49.140;9.234;2023-07-29T01:05:10;20.10;99.90
20446;DHT22;10382;49.140;9.234;2023-07-29T01:07:44;20.20;99.90
20446;DHT22;10382;49.140;9.234;2023-07-29T01:10:22;20.30;99.90
20446;DHT22;10382;49.140;9.234;2023-07-29T01:13:02;20.30;99.90
20446;DHT22;10382;49.140;9.234;2023-07-29T01:15:36;20.20;99.90
20446;DHT22;10382;49.140;9.234;2023-07-29T01:18:06;20.20;99.90
20446;DHT22;10382;49.140;9.234;2023-07-29T01:20:38;20.20;99.90
20446;DHT22;10382;49.140;9.234;2023-07-29T01:23:06;20.10;99.90
20446;DHT22;10382;49.140;9.234;2023-07-29T01:25:34;20.10;99.90
20446;DHT22;10382;49.140;9.234;2023-07-29T01:28:01;20.20;99.90
20446;DHT22;10382;49.140;9.234;2023-07-29T01:30:31;20.10;99.90
20446;DHT22;10382;49.140;9.234;2023-07-29T01:33:02;20.10;99.90
20446;DHT22;10382;49.140;9.234;2023-07-29T01:35:34;20.10;99.90
20446;DHT22;10382;49.140;9.234;2023-07-29T01:38:06;20.10;99.90
20446;DHT22;10382;49.140;9.234;2023-07-29T01:40:36;20.00;99.90
20446;DHT22;10382;49.140;9.234;2023-07-29T01:43:03;20.00;99.90
20446;DHT22;10382;49.140;9.234;2023-07-29T01:45:30;19.90;99.90
20446;DHT22;10382;49.140;9.234;2023-07-29T01:48:01;19.90;99.90
20446;DHT22;10382;49.140;9.234;2023-07-29T01:50:27;20.00;99.90
20446;DHT22;10382;49.140;9.234;2023-07-29T01:52:54;20.00;99.90
20446;DHT22;10382;49.140;9.234;2023-07-29T01:55:21;20.10;99.90
20446;DHT22;10382;49.140;9.234;2023-07-29T01:57:49;20.10;99.90
20446;DHT22;10382;49.140;9.234;2023-07-29T02:00:17;20.10;99.90
20446;DHT22;10382;49.140;9.234;2023-07-29T02:02:44;20.10;99.90
20446;DHT22;10382;49.140;9.234;2023-07-29T02:05:11;20.10;99.90
20446;DHT22;10382;49.140;9.234;2023-07-29T02:07:38;20.10;99.90
20446;DHT22;10382;49.140;9.234;2023-07-29T02:10:05;20.20;99.90
20446;DHT22;10382;49.140;9.234;2023-07-29T02:12:33;20.20;99.90
20446;DHT22;10382;49.140;9.234;2023-07-29T02:15:01;20.20;99.90
20446;DHT22;10382;49.140;9.234;2023-07-29T02:17:28;20.30;99.90
20446;DHT22;10382;49.140;9.234;2023-07-29T02:19:55;20.40;99.90
20446;DHT22;10382;49.140;9.234;2023-07-29T02:22:22;20.40;99.90
20446;DHT22;10382;49.140;9.234;2023-07-29T02:24:48;20.40;99.90
20446;DHT22;10382;49.140;9.234;2023-07-29T02:27:15;20.30;99.90
20446;DHT22;10382;49.140;9.234;2023-07-29T02:29:42;20.30;99.90
20446;DHT22;10382;49.140;9.234;2023-07-29T02:32:10;20.20;99.90
20446;DHT22;10382;49.140;9.234;2023-07-29T02:34:37;20.20;99.90
20446;DHT22;10382;49.140;9.234;2023-07-29T02:37:04;20.10;99.90
20446;DHT22;10382;49.140;9.234;2023-07-29T02:39:31;20.10;99.90
20446;DHT22;10382;49.140;9.234;2023-07-29T02:41:58;20.10;99.90
20446;DHT22;10382;49.140;9.234;2023-07-29T02:44:25;20.10;99.90
20446;DHT22;10382;49.140;9.234;2023-07-29T02:46:52;20.10;99.90
20446;DHT22;10382;49.140;9.234;2023-07-29T02:49:22;20.10;99.90
20446;DHT22;10382;49.140;9.234;2023-07-29T02:51:49;20.10;99.90
20446;DHT22;10382;49.140;9.234;2023-07-29T02:54:16;20.10;99.90
20446;DHT22;10382;49.140;9.234;2023-07-29T02:56:43;20.20;99.90
20446;DHT22;10382;49.140;9.234;2023-07-29T02:59:10;20.20;99.90
20446;DHT22;10382;49.140;9.234;2023-07-29T03:01:37;20.30;99.90
20446;DHT22;10382;49.140;9.234;2023-07-29T03:04:04;20.20;99.90
20446;DHT22;10382;49.140;9.234;2023-07-29T03:06:32;20.20;99.90
20446;DHT22;10382;49.140;9.234;2023-07-29T03:08:59;20.10;99.90
20446;DHT22;10382;49.140;9.234;2023-07-29T03:11:25;20.00;99.90
20446;DHT22;10382;49.140;9.234;2023-07-29T03:13:52;20.00;99.90
20446;DHT22;10382;49.140;9.234;2023-07-29T03:16:19;20.00;99.90
20446;DHT22;10382;49.140;9.234;2023-07-29T03:18:48;20.00;99.90
20446;DHT22;10382;49.140;9.234;2023-07-29T03:21:15;20.00;99.90
20446;DHT22;10382;49.140;9.234;2023-07-29T03:23:43;20.10;99.90
20446;DHT22;10382;49.140;9.234;2023-07-29T03:26:10;20.10;99.90
20446;DHT22;10382;49.140;9.234;2023-07-29T03:28:38;20.10;99.90
20446;DHT22;10382;49.140;9.234;2023-07-29T03:31:05;20.10;99.90
20446;DHT22;10382;49.140;9.234;2023-07-29T03:33:31;20.10;99.90
20446;DHT22;10382;49.140;9.234;2023-07-29T03:35:58;20.10;99.90
20446;DHT22;10382;49.140;9.234;2023-07-29T03:38:25;20.10;99.90
20446;DHT22;10382;49.140;9.234;2023-07-29T03:40:54;20.10;99.90
20446;DHT22;10382;49.140;9.234;2023-07-29T03:43:21;20.10;99.90
20446;DHT22;10382;49.140;9.234;2023-07-29T03:45:48;20.10;99.90
20446;DHT22;10382;49.140;9.234;2023-07-29T03:48:14;20.10;99.90
20446;DHT22;10382;49.140;9.234;2023-07-29T03:50:41;20.10;99.90
20446;DHT22;10382;49.140;9.234;2023-07-29T03:53:08;20.10;99.90
20446;DHT22;10382;49.140;9.234;2023-07-29T03:55:35;20.20;99.90
20446;DHT22;10382;49.140;9.234;2023-07-29T03:58:03;20.20;99.90
20446;DHT22;10382;49.140;9.234;2023-07-29T04:00:30;20.20;99.90
20446;DHT22;10382;49.140;9.234;2023-07-29T04:02:57;20.30;99.90
20446;DHT22;10382;49.140;9.234;2023-07-29T04:05:24;20.30;99.90
20446;DHT22;10382;49.140;9.234;2023-07-29T04:07:51;20.30;99.90
20446;DHT22;10382;49.140;9.234;2023-07-29T04:10:19;20.30;99.90
20446;DHT22;10382;49.140;9.234;2023-07-29T04:12:46;20.30;99.90
20446;DHT22;10382;49.140;9.234;2023-07-29T04:15:14;20.30;99.90
20446;DHT22;10382;49.140;9.234;2023-07-29T04:17:41;20.30;99.90
20446;DHT22;10382;49.140;9.234;2023-07-29T04:20:09;20.30;99.90
20446;DHT22;10382;49.140;9.234;2023-07-29T04:22:36;20.30;99.90
20446;DHT22;10382;49.140;9.234;2023-07-29T04:25:04;20.30;99.90
20446;DHT22;10382;49.140;9.234;2023-07-29T04:27:31;20.30;99.90
20446;DHT22;10382;49.140;9.234;2023-07-29T04:29:58;20.30;99.90
20446;DHT22;10382;49.140;9.234;2023-07-29T04:32:26;20.30;99.90
20446;DHT22;10382;49.140;9.234;2023-07-29T04:34:53;20.30;99.90
20446;DHT22;10382;49.140;9.234;2023-07-29T04:37:20;20.30;99.90
20446;DHT22;10382;49.140;9.234;2023-07-29T04:39:46;20.40;99.90
20446;DHT22;10382;49.140;9.234;2023-07-29T04:42:13;20.40;99.90
20446;DHT22;10382;49.140;9.234;2023-07-29T04:44:40;20.40;99.90
20446;DHT22;10382;49.140;9.234;2023-07-29T04:47:08;20.40;99.90
20446;DHT22;10382;49.140;9.234;2023-07-29T04:49:37;20.40;99.90
20446;DHT22;10382;49.140;9.234;2023-07-29T04:52:04;20.30;99.90
20446;DHT22;10382;49.140;9.234;2023-07-29T04:54:31;20.20;99.90
20446;DHT22;10382;49.140;9.234;2023-07-29T04:56:58;20.10;99.90
20446;DHT22;10382;49.140;9.234;2023-07-29T04:59:25;20.00;99.90
20446;DHT22;10382;49.140;9.234;2023-07-29T05:01:51;19.80;99.90
20446;DHT22;10382;49.140;9.234;2023-07-29T05:04:18;19.70;99.90
20446;DHT22;10382;49.140;9.234;2023-07-29T05:06:46;19.40;99.90
20446;DHT22;10382;49.140;9.234;2023-07-29T05:09:14;19.30;99.90
20446;DHT22;10382;49.140;9.234;2023-07-29T05:11:41;19.20;99.90
20446;DHT22;10382;49.140;9.234;2023-07-29T05:14:09;19.30;99.90
20446;DHT22;10382;49.140;9.234;2023-07-29T05:16:36;19.20;99.90
20446;DHT22;10382;49.140;9.234;2023-07-29T05:19:03;19.30;99.90
20446;DHT22;10382;49.140;9.234;2023-07-29T05:21:30;19.30;99.90
20446;DHT22;10382;49.140;9.234;2023-07-29T05:23:58;19.30;99.90
20446;DHT22;10382;49.140;9.234;2023-07-29T05:26:25;19.50;99.90
20446;DHT22;10382;49.140;9.234;2023-07-29T05:28:52;19.60;99.90
20446;DHT22;10382;49.140;9.234;2023-07-29T05:31:18;19.70;99.90
20446;DHT22;10382;49.140;9.234;2023-07-29T05:33:45;19.80;99.90
20446;DHT22;10382;49.140;9.234;2023-07-29T05:36:12;19.70;99.90
20446;DHT22;10382;49.140;9.234;2023-07-29T05:38:39;19.80;99.90
20446;DHT22;10382;49.140;9.234;2023-07-29T05:41:07;19.90;99.90
20446;DHT22;10382;49.140;9.234;2023-07-29T05:43:34;20.10;99.90
20446;DHT22;10382;49.140;9.234;2023-07-29T05:46:01;20.10;99.90
20446;DHT22;10382;49.140;9.234;2023-07-29T05:48:28;20.30;99.90
20446;DHT22;10382;49.140;9.234;2023-07-29T05:50:55;20.30;99.90
20446;DHT22;10382;49.140;9.234;2023-07-29T05:53:21;20.40;99.90
20446;DHT22;10382;49.140;9.234;2023-07-29T05:55:48;20.50;99.90
20446;DHT22;10382;49.140;9.234;2023-07-29T05:58:16;20.40;99.90
20446;DHT22;10382;49.140;9.234;2023-07-29T06:00:43;20.50;99.90
20446;DHT22;10382;49.140;9.234;2023-07-29T06:03:10;20.40;99.90
20446;DHT22;10382;49.140;9.234;2023-07-29T06:05:37;20.40;99.90
20446;DHT22;10382;49.140;9.234;2023-07-29T06:08:04;20.40;99.90
20446;DHT22;10382;49.140;9.234;2023-07-29T06:10:31;20.30;99.90
20446;DHT22;10382;49.140;9.234;2023-07-29T06:12:57;20.40;99.90
20446;DHT22;10382;49.140;9.234;2023-07-29T06:15:26;20.50;99.90
20446;DHT22;10382;49.140;9.234;2023-07-29T06:17:53;20.60;99.90
20446;DHT22;10382;49.140;9.234;2023-07-29T06:20:20;20.70;99.90
20446;DHT22;10382;49.140;9.234;2023-07-29T06:22:47;20.90;99.90
20446;DHT22;10382;49.140;9.234;2023-07-29T06:25:13;21.10;99.90
20446;DHT22;10382;49.140;9.234;2023-07-29T06:27:40;21.40;99.90
20446;DHT22;10382;49.140;9.234;2023-07-29T06:30:08;21.50;99.90
20446;DHT22;10382;49.140;9.234;2023-07-29T06:32:36;21.70;99.90
20446;DHT22;10382;49.140;9.234;2023-07-29T06:35:03;21.70;99.90
20446;DHT22;10382;49.140;9.234;2023-07-29T06:37:30;21.80;99.90
20446;DHT22;10382;49.140;9.234;2023-07-29T06:39:58;21.90;99.90
20446;DHT22;10382;49.140;9.234;2023-07-29T06:42:25;21.90;99.90
20446;DHT22;10382;49.140;9.234;2023-07-29T06:44:52;22.00;99.90
20446;DHT22;10382;49.140;9.234;2023-07-29T06:47:19;22.10;99.90
20446;DHT22;10382;49.140;9.234;2023-07-29T06:49:47;22.10;99.90
20446;DHT22;10382;49.140;9.234;2023-07-29T06:52:14;22.10;99.90
20446;DHT22;10382;49.140;9.234;2023-07-29T06:54:41;22.10;99.90
20446;DHT22;10382;49.140;9.234;2023-07-29T06:57:07;22.10;99.90
20446;DHT22;10382;49.140;9.234;2023-07-29T06:59:34;22.10;99.90
20446;DHT22;10382;49.140;9.234;2023-07-29T07:02:01;22.00;99.90
20446;DHT22;10382;49.140;9.234;2023-07-29T07:04:28;21.90;99.90
20446;DHT22;10382;49.140;9.234;2023-07-29T07:06:56;21.90;99.90
20446;DHT22;10382;49.140;9.234;2023-07-29T07:09:23;22.00;99.90
20446;DHT22;10382;49.140;9.234;2023-07-29T07:11:50;22.00;99.90
20446;DHT22;10382;49.140;9.234;2023-07-29T07:14:18;22.10;99.90
20446;DHT22;10382;49.140;9.234;2023-07-29T07:16:45;22.20;99.90
20446;DHT22;10382;49.140;9.234;2023-07-29T07:19:12;22.20;99.90
20446;DHT22;10382;49.140;9.234;2023-07-29T07:21:38;22.30;99.90
20446;DHT22;10382;49.140;9.234;2023-07-29T07:24:07;22.30;99.90
20446;DHT22;10382;49.140;9.234;2023-07-29T07:26:34;22.10;99.90
20446;DHT22;10382;49.140;9.234;2023-07-29T07:29:00;22.00;99.90
20446;DHT22;10382;49.140;9.234;2023-07-29T07:31:27;21.80;99.90
20446;DHT22;10382;49.140;9.234;2023-07-29T07:33:54;21.70;99.90
20446;DHT22;10382;49.140;9.234;2023-07-29T07:36:21;21.60;99.90
20446;DHT22;10382;49.140;9.234;2023-07-29T07:38:48;21.50;99.90
20446;DHT22;10382;49.140;9.234;2023-07-29T07:41:16;21.40;99.90
20446;DHT22;10382;49.140;9.234;2023-07-29T07:43:43;21.40;99.90
20446;DHT22;10382;49.140;9.234;2023-07-29T07:46:10;21.50;99.90
20446;DHT22;10382;49.140;9.234;2023-07-29T07:48:37;21.50;99.90
20446;DHT22;10382;49.140;9.234;2023-07-29T07:51:10;21.40;99.90
20446;DHT22;10382;49.140;9.234;2023-07-29T07:53:37;21.40;99.90
20446;DHT22;10382;49.140;9.234;2023-07-29T07:56:04;21.30;99.90
20446;DHT22;10382;49.140;9.234;2023-07-29T07:58:33;21.40;99.90
20446;DHT22;10382;49.140;9.234;2023-07-29T08:01:03;21.50;99.90
20446;DHT22;10382;49.140;9.234;2023-07-29T08:03:30;21.50;99.90
20446;DHT22;10382;49.140;9.234;2023-07-29T08:05:57;21.60;99.90
20446;DHT22;10382;49.140;9.234;2023-07-29T08:08:25;21.60;99.90
20446;DHT22;10382;49.140;9.234;2023-07-29T08:10:52;21.80;99.90
20446;DHT22;10382;49.140;9.234;2023-07-29T08:13:20;22.00;99.90
20446;DHT22;10382;49.140;9.234;2023-07-29T08:15:49;22.30;99.90
20446;DHT22;10382;49.140;9.234;2023-07-29T08:18:16;22.50;99.90
20446;DHT22;10382;49.140;9.234;2023-07-29T08:20:52;22.60;99.90
20446;DHT22;10382;49.140;9.234;2023-07-29T08:23:19;22.70;99.90
20446;DHT22;10382;49.140;9.234;2023-07-29T08:25:51;22.80;99.90
20446;DHT22;10382;49.140;9.234;2023-07-29T08:28:17;22.90;99.90
20446;DHT22;10382;49.140;9.234;2023-07-29T08:30:44;22.90;99.90
20446;DHT22;10382;49.140;9.234;2023-07-29T08:33:12;22.80;99.90
20446;DHT22;10382;49.140;9.234;2023-07-29T08:35:39;22.70;99.90
20446;DHT22;10382;49.140;9.234;2023-07-29T08:38:06;22.60;99.90
20446;DHT22;10382;49.140;9.234;2023-07-29T08:40:35;22.50;99.90
20446;DHT22;10382;49.140;9.234;2023-07-29T08:43:05;22.50;99.90
20446;DHT22;10382;49.140;9.234;2023-07-29T08:45:34;22.40;99.90
20446;DHT22;10382;49.140;9.234;2023-07-29T08:48:02;22.40;99.90
20446;DHT22;10382;49.140;9.234;2023-07-29T08:50:35;22.50;99.90
20446;DHT22;10382;49.140;9.234;2023-07-29T08:53:04;22.50;99.90
20446;DHT22;10382;49.140;9.234;2023-07-29T08:55:32;22.60;99.90
20446;DHT22;10382;49.140;9.234;2023-07-29T08:57:59;22.70;99.90
20446;DHT22;10382;49.140;9.234;2023-07-29T09:00:27;22.80;99.90
20446;DHT22;10382;49.140;9.234;2023-07-29T09:02:54;23.00;99.90
20446;DHT22;10382;49.140;9.234;2023-07-29T09:05:23;23.20;99.90
20446;DHT22;10382;49.140;9.234;2023-07-29T09:07:51;23.30;99.90
20446;DHT22;10382;49.140;9.234;2023-07-29T09:10:21;23.60;99.90
20446;DHT22;10382;49.140;9.234;2023-07-29T09:12:49;23.70;99.90
20446;DHT22;10382;49.140;9.234;2023-07-29T09:15:27;23.80;99.90
20446;DHT22;10382;49.140;9.234;2023-07-29T09:17:55;23.80;99.90
20446;DHT22;10382;49.140;9.234;2023-07-29T09:20:25;23.80;99.90
20446;DHT22;10382;49.140;9.234;2023-07-29T09:22:55;23.90;99.90
20446;DHT22;10382;49.140;9.234;2023-07-29T09:25:25;23.90;99.90
20446;DHT22;10382;49.140;9.234;2023-07-29T09:27:52;24.00;99.90
20446;DHT22;10382;49.140;9.234;2023-07-29T09:30:19;24.10;99.90
20446;DHT22;10382;49.140;9.234;2023-07-29T09:32:45;24.40;99.90
20446;DHT22;10382;49.140;9.234;2023-07-29T09:35:12;24.50;99.90
20446;DHT22;10382;49.140;9.234;2023-07-29T09:37:39;24.30;99.90
20446;DHT22;10382;49.140;9.234;2023-07-29T09:40:14;24.40;99.90
20446;DHT22;10382;49.140;9.234;2023-07-29T09:42:48;24.30;99.90
20446;DHT22;10382;49.140;9.234;2023-07-29T09:45:20;24.20;99.90
20446;DHT22;10382;49.140;9.234;2023-07-29T09:47:47;23.90;99.90
20446;DHT22;10382;49.140;9.234;2023-07-29T09:50:15;23.70;99.90
20446;DHT22;10382;49.140;9.234;2023-07-29T09:52:42;23.60;99.90
20446;DHT22;10382;49.140;9.234;2023-07-29T09:55:12;23.40;99.90
20446;DHT22;10382;49.140;9.234;2023-07-29T09:57:39;23.20;99.90
20446;DHT22;10382;49.140;9.234;2023-07-29T10:00:07;23.00;99.90
20446;DHT22;10382;49.140;9.234;2023-07-29T10:02:38;22.80;99.90
20446;DHT22;10382;49.140;9.234;2023-07-29T10:05:06;22.60;99.90
20446;DHT22;10382;49.140;9.234;2023-07-29T10:07:34;22.30;99.90
20446;DHT22;10382;49.140;9.234;2023-07-29T10:10:04;22.10;99.90
20446;DHT22;10382;49.140;9.234;2023-07-29T10:12:33;22.00;99.90
20446;DHT22;10382;49.140;9.234;2023-07-29T10:15:02;22.10;99.90
20446;DHT22;10382;49.140;9.234;2023-07-29T10:17:30;22.10;99.90
20446;DHT22;10382;49.140;9.234;2023-07-29T10:19:57;22.20;99.90
20446;DHT22;10382;49.140;9.234;2023-07-29T10:22:27;22.20;99.90
20446;DHT22;10382;49.140;9.234;2023-07-29T10:24:59;22.40;99.90
20446;DHT22;10382;49.140;9.234;2023-07-29T10:27:29;22.90;99.90
20446;DHT22;10382;49.140;9.234;2023-07-29T10:29:58;23.50;99.90
20446;DHT22;10382;49.140;9.234;2023-07-29T10:32:25;23.90;99.90
20446;DHT22;10382;49.140;9.234;2023-07-29T10:34:53;24.30;99.90
20446;DHT22;10382;49.140;9.234;2023-07-29T10:37:21;24.70;99.90
20446;DHT22;10382;49.140;9.234;2023-07-29T10:39:54;24.90;99.90
20446;DHT22;10382;49.140;9.234;2023-07-29T10:42:21;25.00;99.90
20446;DHT22;10382;49.140;9.234;2023-07-29T10:44:50;24.90;99.90
20446;DHT22;10382;49.140;9.234;2023-07-29T10:47:20;25.10;99.90
20446;DHT22;10382;49.140;9.234;2023-07-29T10:49:52;25.40;99.90
20446;DHT22;10382;49.140;9.234;2023-07-29T10:52:40;25.60;99.90
20446;DHT22;10382;49.140;9.234;2023-07-29T10:55:24;25.60;99.90
20446;DHT22;10382;49.140;9.234;2023-07-29T10:57:52;25.50;99.90
20446;DHT22;10382;49.140;9.234;2023-07-29T11:00:20;25.30;99.90
20446;DHT22;10382;49.140;9.234;2023-07-29T11:02:58;25.20;99.90
20446;DHT22;10382;49.140;9.234;2023-07-29T11:05:26;25.20;99.90
20446;DHT22;10382;49.140;9.234;2023-07-29T11:07:53;25.40;99.90
20446;DHT22;10382;49.140;9.234;2023-07-29T11:10:21;25.50;99.90
20446;DHT22;10382;49.140;9.234;2023-07-29T11:12:49;25.60;99.90
20446;DHT22;10382;49.140;9.234;2023-07-29T11:15:22;25.70;99.90
20446;DHT22;10382;49.140;9.234;2023-07-29T11:17:52;26.00;99.90
20446;DHT22;10382;49.140;9.234;2023-07-29T11:20:20;26.10;99.90
20446;DHT22;10382;49.140;9.234;2023-07-29T11:22:48;26.00;99.90
20446;DHT22;10382;49.140;9.234;2023-07-29T11:25:17;25.70;99.90
20446;DHT22;10382;49.140;9.234;2023-07-29T11:27:45;25.40;99.90
20446;DHT22;10382;49.140;9.234;2023-07-29T11:30:13;25.20;99.90
20446;DHT22;10382;49.140;9.234;2023-07-29T11:32:42;25.10;99.90
20446;DHT22;10382;49.140;9.234;2023-07-29T11:35:12;25.50;99.90
20446;DHT22;10382;49.140;9.234;2023-07-29T11:37:41;25.80;99.90
20446;DHT22;10382;49.140;9.234;2023-07-29T11:40:09;25.90;99.90
20446;DHT22;10382;49.140;9.234;2023-07-29T11:42:37;26.10;99.90
20446;DHT22;10382;49.140;9.234;2023-07-29T11:45:05;26.20;99.90
20446;DHT22;10382;49.140;9.234;2023-07-29T11:47:33;26.20;99.90
20446;DHT22;10382;49.140;9.234;2023-07-29T11:50:03;26.40;99.90
20446;DHT22;10382;49.140;9.234;2023-07-29T11:52:33;26.60;99.90
20446;DHT22;10382;49.140;9.234;2023-07-29T11:55:00;26.90;99.90
20446;DHT22;10382;49.140;9.234;2023-07-29T11:57:28;27.00;99.90
20446;DHT22;10382;49.140;9.234;2023-07-29T11:59:55;26.80;99.90
20446;DHT22;10382;49.140;9.234;2023-07-29T12:02:23;26.50;99.90
20446;DHT22;10382;49.140;9.234;2023-07-29T12:04:51;26.40;99.90
20446;DHT22;10382;49.140;9.234;2023-07-29T12:07:19;26.50;99.90
20446;DHT22;10382;49.140;9.234;2023-07-29T12:09:48;26.50;99.90
20446;DHT22;10382;49.140;9.234;2023-07-29T12:12:16;26.60;99.90
20446;DHT22;10382;49.140;9.234;2023-07-29T12:14:44;26.70;99.90
20446;DHT22;10382;49.140;9.234;2023-07-29T12:17:13;26.70;99.90
20446;DHT22;10382;49.140;9.234;2023-07-29T12:19:40;26.90;99.90
20446;DHT22;10382;49.140;9.234;2023-07-29T12:22:09;26.70;99.90
20446;DHT22;10382;49.140;9.234;2023-07-29T12:24:37;26.60;99.90
20446;DHT22;10382;49.140;9.234;2023-07-29T12:27:10;26.60;99.90
20446;DHT22;10382;49.140;9.234;2023-07-29T12:29:40;26.70;99.90
20446;DHT22;10382;49.140;9.234;2023-07-29T12:32:08;26.90;99.90
20446;DHT22;10382;49.140;9.234;2023-07-29T12:34:36;27.10;99.90
20446;DHT22;10382;49.140;9.234;2023-07-29T12:37:05;27.30;99.90
20446;DHT22;10382;49.140;9.234;2023-07-29T12:39:34;27.40;99.90
20446;DHT22;10382;49.140;9.234;2023-07-29T12:42:02;27.60;99.90
20446;DHT22;10382;49.140;9.234;2023-07-29T12:44:32;27.50;99.90
20446;DHT22;10382;49.140;9.234;2023-07-29T12:47:00;27.40;99.90
20446;DHT22;10382;49.140;9.234;2023-07-29T12:49:27;27.40;99.90
20446;DHT22;10382;49.140;9.234;2023-07-29T12:51:55;27.40;99.90
20446;DHT22;10382;49.140;9.234;2023-07-29T12:54:22;27.40;99.90
20446;DHT22;10382;49.140;9.234;2023-07-29T12:56:49;27.50;99.90
20446;DHT22;10382;49.140;9.234;2023-07-29T12:59:16;27.40;99.90
20446;DHT22;10382;49.140;9.234;2023-07-29T13:01:44;27.50;99.90
20446;DHT22;10382;49.140;9.234;2023-07-29T13:04:11;27.70;99.90
20446;DHT22;10382;49.140;9.234;2023-07-29T13:06:38;27.80;99.90
20446;DHT22;10382;49.140;9.234;2023-07-29T13:09:04;27.90;99.90
20446;DHT22;10382;49.140;9.234;2023-07-29T13:11:31;28.10;99.90
20446;DHT22;10382;49.140;9.234;2023-07-29T13:13:59;28.20;99.90
20446;DHT22;10382;49.140;9.234;2023-07-29T13:16:26;28.20;99.90
20446;DHT22;10382;49.140;9.234;2023-07-29T13:18:54;28.00;99.90
20446;DHT22;10382;49.140;9.234;2023-07-29T13:21:22;27.80;99.90
20446;DHT22;10382;49.140;9.234;2023-07-29T13:23:49;27.80;99.90
20446;DHT22;10382;49.140;9.234;2023-07-29T13:26:15;28.10;99.90
20446;DHT22;10382;49.140;9.234;2023-07-29T13:28:42;28.40;99.90
20446;DHT22;10382;49.140;9.234;2023-07-29T13:31:09;28.50;99.90
20446;DHT22;10382;49.140;9.234;2023-07-29T13:33:37;28.20;99.90
20446;DHT22;10382;49.140;9.234;2023-07-29T13:36:05;27.90;99.90
20446;DHT22;10382;49.140;9.234;2023-07-29T13:38:33;28.00;99.90
20446;DHT22;10382;49.140;9.234;2023-07-29T13:41:00;28.20;99.90
20446;DHT22;10382;49.140;9.234;2023-07-29T13:43:27;28.60;99.90
20446;DHT22;10382;49.140;9.234;2023-07-29T13:45:54;28.60;99.90
20446;DHT22;10382;49.140;9.234;2023-07-29T13:48:21;28.60;99.90
20446;DHT22;10382;49.140;9.234;2023-07-29T13:50:48;28.80;99.90
20446;DHT22;10382;49.140;9.234;2023-07-29T13:53:18;28.90;99.90
20446;DHT22;10382;49.140;9.234;2023-07-29T13:55:44;28.70;99.90
20446;DHT22;10382;49.140;9.234;2023-07-29T13:58:11;28.50;99.90
20446;DHT22;10382;49.140;9.234;2023-07-29T14:00:38;28.30;99.90
20446;DHT22;10382;49.140;9.234;2023-07-29T14:03:05;28.00;99.90
20446;DHT22;10382;49.140;9.234;2023-07-29T14:05:32;27.90;99.90
20446;DHT22;10382;49.140;9.234;2023-07-29T14:07:59;27.80;99.90
20446;DHT22;10382;49.140;9.234;2023-07-29T14:10:27;27.70;99.90
20446;DHT22;10382;49.140;9.234;2023-07-29T14:12:54;27.70;99.90
20446;DHT22;10382;49.140;9.234;2023-07-29T14:15:21;27.70;99.90
20446;DHT22;10382;49.140;9.234;2023-07-29T14:17:48;27.60;99.90
20446;DHT22;10382;49.140;9.234;2023-07-29T14:20:15;27.70;99.90
20446;DHT22;10382;49.140;9.234;2023-07-29T14:22:42;27.70;99.90
20446;DHT22;10382;49.140;9.234;2023-07-29T14:25:09;27.60;99.90
20446;DHT22;10382;49.140;9.234;2023-07-29T14:27:37;27.90;99.90
20446;DHT22;10382;49.140;9.234;2023-07-29T14:30:05;28.10;99.90
20446;DHT22;10382;49.140;9.234;2023-07-29T14:32:32;28.10;99.90
20446;DHT22;10382;49.140;9.234;2023-07-29T14:34:59;28.00;99.90
20446;DHT22;10382;49.140;9.234;2023-07-29T14:37:29;28.00;99.90
20446;DHT22;10382;49.140;9.234;2023-07-29T14:39:57;28.00;99.90
20446;DHT22;10382;49.140;9.234;2023-07-29T14:42:24;28.10;99.90
20446;DHT22;10382;49.140;9.234;2023-07-29T14:44:52;28.10;99.90
20446;DHT22;10382;49.140;9.234;2023-07-29T14:47:19;28.20;99.90
20446;DHT22;10382;49.140;9.234;2023-07-29T14:49:46;28.30;99.90
20446;DHT22;10382;49.140;9.234;2023-07-29T14:52:12;28.40;99.90
20446;DHT22;10382;49.140;9.234;2023-07-29T14:54:39;28.60;99.90
20446;DHT22;10382;49.140;9.234;2023-07-29T14:57:07;28.60;99.90
20446;DHT22;10382;49.140;9.234;2023-07-29T14:59:34;28.90;99.90
20446;DHT22;10382;49.140;9.234;2023-07-29T15:02:02;29.00;99.90
20446;DHT22;10382;49.140;9.234;2023-07-29T15:04:29;29.20;99.90
20446;DHT22;10382;49.140;9.234;2023-07-29T15:06:55;29.20;99.90
20446;DHT22;10382;49.140;9.234;2023-07-29T15:09:23;29.00;99.90
20446;DHT22;10382;49.140;9.234;2023-07-29T15:11:50;28.70;99.90
20446;DHT22;10382;49.140;9.234;2023-07-29T15:14:17;28.50;99.90
20446;DHT22;10382;49.140;9.234;2023-07-29T15:16:44;28.50;99.90
20446;DHT22;10382;49.140;9.234;2023-07-29T15:19:12;28.50;99.90
20446;DHT22;10382;49.140;9.234;2023-07-29T15:21:39;28.40;99.90
20446;DHT22;10382;49.140;9.234;2023-07-29T15:24:06;28.50;99.90
20446;DHT22;10382;49.140;9.234;2023-07-29T15:26:34;28.40;99.90
20446;DHT22;10382;49.140;9.234;2023-07-29T15:29:01;28.60;99.90
20446;DHT22;10382;49.140;9.234;2023-07-29T15:31:28;29.00;99.90
20446;DHT22;10382;49.140;9.234;2023-07-29T15:33:55;29.30;99.90